Pagina principale
METAR-TAF:

METAR-TAF

Aeroporti :

Wasilla, Alaska, Stati Uniti

latitudine: 61-34-19N, longitudine: 149-32-26W, altezza: 106 m

Osservazione

Il bollettino è stato emesso 59 minuti fa, alle 13:56 UTC
Vento 4 kt da est/nord-est
Temperature 12°C
Umidità 82%
Pressione 1025 hPa
Visibilità: 16.1 km
Cielo coperto ad un'altezza di 9000 ft

METAR: PAWS 191356Z AUTO 07004KT 10SM OVC090 12/09 A3026 RMK AO2 SLP261 T01170094

Ora: 06:55 (14:55 UTC)


TAF: mancante

Osservazioni e previsioni meteorologiche di più di 4000 aeroporti (messaggi METAR e TAF).

Le stazioni disponibili sono rappresentate dai dischi gialli e rossi sulla carta.

Puntare il mouse per vedere il nome della stazione.

Clicca sopra per visualizzare le osservazioni e previsioni meteorologiche.

Per cambiare la mappa : fare clic sui pulsanti verdi con una croce nera per ingrandire, il pulsante verde con un trattino per diminuire, o sulla freccia verde per le mappe adiacenti.


METAR-TAF: